sensor_id;sensor_type;location;lat;lon;timestamp;pressure;altitude;pressure_sealevel;temperature;humidity
76216;BME280;65010;50.190;18.930;2023-03-12T00:00:20;97677.06;;;0.96;56.05
76216;BME280;65010;50.190;18.930;2023-03-12T00:03:27;97683.63;;;0.90;56.48
76216;BME280;65010;50.190;18.930;2023-03-12T00:06:33;97685.34;;;0.80;55.75
76216;BME280;65010;50.190;18.930;2023-03-12T00:09:39;97688.72;;;0.80;57.02
76216;BME280;65010;50.190;18.930;2023-03-12T00:12:46;97691.63;;;0.87;56.24
76216;BME280;65010;50.190;18.930;2023-03-12T00:15:56;97694.13;;;0.98;58.11
76216;BME280;65010;50.190;18.930;2023-03-12T00:19:01;97706.59;;;1.14;58.28
76216;BME280;65010;50.190;18.930;2023-03-12T00:22:08;97700.75;;;1.12;56.00
76216;BME280;65010;50.190;18.930;2023-03-12T00:25:15;97712.84;;;1.12;56.41
76216;BME280;65010;50.190;18.930;2023-03-12T00:28:23;97708.34;;;1.14;57.33
76216;BME280;65010;50.190;18.930;2023-03-12T00:31:32;97706.88;;;1.21;57.22
76216;BME280;65010;50.190;18.930;2023-03-12T00:34:39;97708.38;;;1.23;56.52
76216;BME280;65010;50.190;18.930;2023-03-12T00:37:45;97711.16;;;1.32;58.61
76216;BME280;65010;50.190;18.930;2023-03-12T00:40:52;97718.25;;;1.39;57.07
76216;BME280;65010;50.190;18.930;2023-03-12T00:43:58;97716.63;;;1.38;57.05
76216;BME280;65010;50.190;18.930;2023-03-12T00:47:08;97707.63;;;1.33;56.51
76216;BME280;65010;50.190;18.930;2023-03-12T00:50:14;97719.88;;;1.30;57.01
76216;BME280;65010;50.190;18.930;2023-03-12T00:53:21;97722.88;;;1.36;57.59
76216;BME280;65010;50.190;18.930;2023-03-12T00:56:27;97726.16;;;1.38;56.56
76216;BME280;65010;50.190;18.930;2023-03-12T00:59:34;97726.84;;;1.40;57.20
76216;BME280;65010;50.190;18.930;2023-03-12T01:02:44;97727.53;;;1.42;57.96
76216;BME280;65010;50.190;18.930;2023-03-12T01:05:51;97723.72;;;1.36;55.92
76216;BME280;65010;50.190;18.930;2023-03-12T01:09:00;97722.19;;;1.34;56.62
76216;BME280;65010;50.190;18.930;2023-03-12T01:12:07;97720.81;;;1.29;56.24
76216;BME280;65010;50.190;18.930;2023-03-12T01:15:15;97720.91;;;1.18;56.00
76216;BME280;65010;50.190;18.930;2023-03-12T01:18:25;97715.00;;;1.06;55.85
76216;BME280;65010;50.190;18.930;2023-03-12T01:21:31;97704.47;;;0.98;56.58
76216;BME280;65010;50.190;18.930;2023-03-12T01:24:38;97703.22;;;0.93;56.38
76216;BME280;65010;50.190;18.930;2023-03-12T01:27:44;97707.03;;;0.88;56.60
76216;BME280;65010;50.190;18.930;2023-03-12T01:30:51;97702.47;;;0.81;56.79
76216;BME280;65010;50.190;18.930;2023-03-12T01:34:00;97705.47;;;0.76;56.84
76216;BME280;65010;50.190;18.930;2023-03-12T01:37:06;97705.81;;;0.72;57.39
76216;BME280;65010;50.190;18.930;2023-03-12T01:40:14;97707.91;;;0.57;56.60
76216;BME280;65010;50.190;18.930;2023-03-12T01:43:26;97711.50;;;0.44;57.03
76216;BME280;65010;50.190;18.930;2023-03-12T01:46:36;97717.56;;;0.34;57.52
76216;BME280;65010;50.190;18.930;2023-03-12T01:50:01;97716.88;;;0.32;58.09
76216;BME280;65010;50.190;18.930;2023-03-12T01:53:07;97712.16;;;0.25;58.41
76216;BME280;65010;50.190;18.930;2023-03-12T01:56:16;97719.59;;;0.19;57.42
76216;BME280;65010;50.190;18.930;2023-03-12T01:59:29;97718.81;;;0.07;58.17
76216;BME280;65010;50.190;18.930;2023-03-12T02:02:39;97721.66;;;0.04;59.00
76216;BME280;65010;50.190;18.930;2023-03-12T02:06:01;97725.88;;;0.05;58.23
76216;BME280;65010;50.190;18.930;2023-03-12T02:09:13;97727.66;;;0.04;58.70
76216;BME280;65010;50.190;18.930;2023-03-12T02:12:23;97735.03;;;0.09;59.58
76216;BME280;65010;50.190;18.930;2023-03-12T02:15:31;97734.91;;;0.10;58.20
76216;BME280;65010;50.190;18.930;2023-03-12T02:18:38;97742.44;;;0.14;58.93
76216;BME280;65010;50.190;18.930;2023-03-12T02:21:47;97738.06;;;0.14;58.45
76216;BME280;65010;50.190;18.930;2023-03-12T02:24:59;97749.00;;;0.18;58.76
76216;BME280;65010;50.190;18.930;2023-03-12T02:28:17;97749.91;;;0.17;58.22
76216;BME280;65010;50.190;18.930;2023-03-12T02:31:30;97752.06;;;0.12;58.30
76216;BME280;65010;50.190;18.930;2023-03-12T02:34:42;97755.00;;;0.07;58.01
76216;BME280;65010;50.190;18.930;2023-03-12T02:37:51;97759.84;;;0.00;57.83
76216;BME280;65010;50.190;18.930;2023-03-12T02:41:02;97768.41;;;0.01;58.55
76216;BME280;65010;50.190;18.930;2023-03-12T02:44:18;97771.00;;;0.01;57.37
76216;BME280;65010;50.190;18.930;2023-03-12T02:47:27;97770.78;;;-0.07;57.47
76216;BME280;65010;50.190;18.930;2023-03-12T02:50:34;97774.91;;;-0.16;57.68
76216;BME280;65010;50.190;18.930;2023-03-12T02:53:41;97777.72;;;-0.19;58.17
76216;BME280;65010;50.190;18.930;2023-03-12T02:56:48;97775.97;;;-0.19;58.50
76216;BME280;65010;50.190;18.930;2023-03-12T02:59:58;97783.13;;;-0.22;57.85
76216;BME280;65010;50.190;18.930;2023-03-12T03:03:05;97782.66;;;-0.27;57.70
76216;BME280;65010;50.190;18.930;2023-03-12T03:06:13;97784.22;;;-0.36;57.52
76216;BME280;65010;50.190;18.930;2023-03-12T03:09:19;97782.91;;;-0.31;58.08
76216;BME280;65010;50.190;18.930;2023-03-12T03:12:26;97789.00;;;-0.20;58.55
76216;BME280;65010;50.190;18.930;2023-03-12T03:15:37;97797.94;;;-0.24;57.41
76216;BME280;65010;50.190;18.930;2023-03-12T03:18:44;97796.16;;;-0.24;57.52
76216;BME280;65010;50.190;18.930;2023-03-12T03:21:49;97800.50;;;-0.24;57.59
76216;BME280;65010;50.190;18.930;2023-03-12T03:24:56;97810.38;;;-0.30;56.98
76216;BME280;65010;50.190;18.930;2023-03-12T03:28:03;97808.03;;;-0.33;56.56
76216;BME280;65010;50.190;18.930;2023-03-12T03:31:13;97815.19;;;-0.36;56.74
76216;BME280;65010;50.190;18.930;2023-03-12T03:34:19;97815.78;;;-0.44;55.48
76216;BME280;65010;50.190;18.930;2023-03-12T03:37:26;97822.22;;;-0.50;55.86
76216;BME280;65010;50.190;18.930;2023-03-12T03:40:33;97820.59;;;-0.51;56.14
76216;BME280;65010;50.190;18.930;2023-03-12T03:43:40;97832.53;;;-0.50;56.21
76216;BME280;65010;50.190;18.930;2023-03-12T03:46:50;97831.13;;;-0.54;55.85
76216;BME280;65010;50.190;18.930;2023-03-12T03:50:08;97837.56;;;-0.59;55.50
76216;BME280;65010;50.190;18.930;2023-03-12T03:53:17;97836.63;;;-0.70;56.13
76216;BME280;65010;50.190;18.930;2023-03-12T03:56:24;97837.94;;;-0.75;55.87
76216;BME280;65010;50.190;18.930;2023-03-12T03:59:32;97835.56;;;-0.78;55.93
76216;BME280;65010;50.190;18.930;2023-03-12T04:02:42;97836.16;;;-0.75;56.20
76216;BME280;65010;50.190;18.930;2023-03-12T04:05:53;97839.56;;;-0.74;55.36
76216;BME280;65010;50.190;18.930;2023-03-12T04:09:01;97838.59;;;-0.84;55.49
76216;BME280;65010;50.190;18.930;2023-03-12T04:12:09;97842.25;;;-0.87;55.57
76216;BME280;65010;50.190;18.930;2023-03-12T04:15:17;97843.72;;;-0.96;55.20
76216;BME280;65010;50.190;18.930;2023-03-12T04:18:26;97843.38;;;-1.02;55.22
76216;BME280;65010;50.190;18.930;2023-03-12T04:21:36;97844.53;;;-1.06;55.92
76216;BME280;65010;50.190;18.930;2023-03-12T04:24:48;97847.22;;;-1.08;55.54
76216;BME280;65010;50.190;18.930;2023-03-12T04:27:58;97846.75;;;-1.13;55.63
76216;BME280;65010;50.190;18.930;2023-03-12T04:31:06;97854.09;;;-1.20;55.92
76216;BME280;65010;50.190;18.930;2023-03-12T04:34:20;97857.72;;;-1.22;55.86
76216;BME280;65010;50.190;18.930;2023-03-12T04:37:31;97858.53;;;-1.22;55.99
76216;BME280;65010;50.190;18.930;2023-03-12T04:40:38;97861.00;;;-1.20;56.20
76216;BME280;65010;50.190;18.930;2023-03-12T04:43:45;97867.25;;;-1.12;56.07
76216;BME280;65010;50.190;18.930;2023-03-12T04:46:53;97860.66;;;-1.16;55.47
76216;BME280;65010;50.190;18.930;2023-03-12T04:50:03;97870.06;;;-1.15;55.73
76216;BME280;65010;50.190;18.930;2023-03-12T04:53:11;97867.03;;;-1.08;56.43
76216;BME280;65010;50.190;18.930;2023-03-12T04:56:17;97873.13;;;-1.10;55.71
76216;BME280;65010;50.190;18.930;2023-03-12T04:59:26;97866.09;;;-1.07;55.62
76216;BME280;65010;50.190;18.930;2023-03-12T05:02:33;97880.75;;;-1.08;55.96
76216;BME280;65010;50.190;18.930;2023-03-12T05:05:42;97867.63;;;-1.05;55.61
76216;BME280;65010;50.190;18.930;2023-03-12T05:08:50;97878.88;;;-1.06;55.52
76216;BME280;65010;50.190;18.930;2023-03-12T05:11:57;97878.06;;;-1.06;55.75
76216;BME280;65010;50.190;18.930;2023-03-12T05:15:04;97881.34;;;-1.04;55.93
76216;BME280;65010;50.190;18.930;2023-03-12T05:18:12;97883.81;;;-1.03;55.66
76216;BME280;65010;50.190;18.930;2023-03-12T05:21:21;97880.53;;;-1.05;55.98
76216;BME280;65010;50.190;18.930;2023-03-12T05:24:30;97891.66;;;-1.04;55.77
76216;BME280;65010;50.190;18.930;2023-03-12T05:27:37;97894.13;;;-1.03;55.70
76216;BME280;65010;50.190;18.930;2023-03-12T05:30:44;97895.66;;;-1.00;55.88
76216;BME280;65010;50.190;18.930;2023-03-12T05:33:51;97899.41;;;-1.04;55.46
76216;BME280;65010;50.190;18.930;2023-03-12T05:37:01;97907.50;;;-0.98;55.45
76216;BME280;65010;50.190;18.930;2023-03-12T05:40:10;97909.31;;;-0.87;55.99
76216;BME280;65010;50.190;18.930;2023-03-12T05:43:18;97911.44;;;-0.81;55.27
76216;BME280;65010;50.190;18.930;2023-03-12T05:46:26;97920.00;;;-0.80;55.14
76216;BME280;65010;50.190;18.930;2023-03-12T05:49:34;97915.22;;;-0.74;55.02
76216;BME280;65010;50.190;18.930;2023-03-12T05:52:43;97920.97;;;-0.70;54.75
76216;BME280;65010;50.190;18.930;2023-03-12T05:55:49;97929.47;;;-0.57;54.72
76216;BME280;65010;50.190;18.930;2023-03-12T05:58:56;97930.63;;;-0.50;54.18
76216;BME280;65010;50.190;18.930;2023-03-12T06:02:04;97931.84;;;-0.42;54.28
76216;BME280;65010;50.190;18.930;2023-03-12T06:05:10;97929.50;;;-0.34;53.33
76216;BME280;65010;50.190;18.930;2023-03-12T06:08:20;97929.25;;;-0.31;53.89
76216;BME280;65010;50.190;18.930;2023-03-12T06:11:26;97932.53;;;-0.29;54.16
76216;BME280;65010;50.190;18.930;2023-03-12T06:14:34;97941.75;;;-0.25;53.67
76216;BME280;65010;50.190;18.930;2023-03-12T06:17:40;97942.31;;;-0.21;53.53
76216;BME280;65010;50.190;18.930;2023-03-12T06:20:47;97944.56;;;-0.17;53.64
76216;BME280;65010;50.190;18.930;2023-03-12T06:23:56;97958.53;;;-0.08;53.40
76216;BME280;65010;50.190;18.930;2023-03-12T06:27:22;97956.53;;;0.07;53.31
76216;BME280;65010;50.190;18.930;2023-03-12T06:30:28;97947.38;;;0.14;52.90
76216;BME280;65010;50.190;18.930;2023-03-12T06:33:35;97952.31;;;0.17;53.26
76216;BME280;65010;50.190;18.930;2023-03-12T06:36:41;97954.19;;;0.26;52.95
76216;BME280;65010;50.190;18.930;2023-03-12T06:39:50;97965.59;;;0.24;53.02
76216;BME280;65010;50.190;18.930;2023-03-12T06:42:56;97954.91;;;0.28;53.16
76216;BME280;65010;50.190;18.930;2023-03-12T06:46:05;97969.00;;;0.24;52.21
76216;BME280;65010;50.190;18.930;2023-03-12T06:49:13;97971.25;;;0.18;53.11
76216;BME280;65010;50.190;18.930;2023-03-12T06:52:20;97978.28;;;0.16;52.87
76216;BME280;65010;50.190;18.930;2023-03-12T06:55:28;97988.38;;;0.19;53.15
76216;BME280;65010;50.190;18.930;2023-03-12T06:58:35;97988.84;;;0.35;54.06
76216;BME280;65010;50.190;18.930;2023-03-12T07:01:41;97980.38;;;0.44;53.25
76216;BME280;65010;50.190;18.930;2023-03-12T07:04:47;97989.78;;;0.45;52.27
76216;BME280;65010;50.190;18.930;2023-03-12T07:07:53;97983.91;;;0.43;53.69
76216;BME280;65010;50.190;18.930;2023-03-12T07:11:03;97987.19;;;0.45;53.00
76216;BME280;65010;50.190;18.930;2023-03-12T07:14:09;97992.13;;;0.48;52.72
76216;BME280;65010;50.190;18.930;2023-03-12T07:17:16;97986.84;;;0.50;52.60
76216;BME280;65010;50.190;18.930;2023-03-12T07:20:22;97980.03;;;0.60;53.20
76216;BME280;65010;50.190;18.930;2023-03-12T07:23:28;97985.25;;;0.93;52.43
76216;BME280;65010;50.190;18.930;2023-03-12T07:26:37;97987.03;;;1.24;52.29
76216;BME280;65010;50.190;18.930;2023-03-12T07:29:45;97981.25;;;1.95;51.33
76216;BME280;65010;50.190;18.930;2023-03-12T07:32:51;97980.81;;;2.52;48.68
76216;BME280;65010;50.190;18.930;2023-03-12T07:35:59;97993.25;;;2.58;48.52
76216;BME280;65010;50.190;18.930;2023-03-12T07:39:05;97994.34;;;2.55;48.64
76216;BME280;65010;50.190;18.930;2023-03-12T07:42:14;97992.94;;;2.92;47.45
76216;BME280;65010;50.190;18.930;2023-03-12T07:45:22;97989.94;;;3.45;45.90
76216;BME280;65010;50.190;18.930;2023-03-12T07:48:29;97984.19;;;3.80;45.65
76216;BME280;65010;50.190;18.930;2023-03-12T07:51:36;97979.94;;;4.36;44.75
76216;BME280;65010;50.190;18.930;2023-03-12T07:54:43;97980.38;;;4.87;43.47
76216;BME280;65010;50.190;18.930;2023-03-12T07:57:52;97969.59;;;5.18;42.25
76216;BME280;65010;50.190;18.930;2023-03-12T08:01:01;97984.78;;;5.40;41.35
76216;BME280;65010;50.190;18.930;2023-03-12T08:04:08;97981.13;;;5.69;41.88
76216;BME280;65010;50.190;18.930;2023-03-12T08:07:15;97982.97;;;6.03;40.41
76216;BME280;65010;50.190;18.930;2023-03-12T08:10:22;97978.16;;;6.42;39.50
76216;BME280;65010;50.190;18.930;2023-03-12T08:13:31;97976.63;;;6.66;38.46
76216;BME280;65010;50.190;18.930;2023-03-12T08:16:38;97966.09;;;6.84;37.88
76216;BME280;65010;50.190;18.930;2023-03-12T08:19:44;97978.25;;;7.18;37.55
76216;BME280;65010;50.190;18.930;2023-03-12T08:22:50;97976.63;;;7.58;37.21
76216;BME280;65010;50.190;18.930;2023-03-12T08:25:57;97984.28;;;8.00;37.16
76216;BME280;65010;50.190;18.930;2023-03-12T08:29:06;97984.25;;;8.25;34.04
76216;BME280;65010;50.190;18.930;2023-03-12T08:32:13;97983.41;;;8.41;33.96
76216;BME280;65010;50.190;18.930;2023-03-12T08:35:19;97981.97;;;8.22;33.19
76216;BME280;65010;50.190;18.930;2023-03-12T08:38:26;97986.47;;;8.53;34.84
76216;BME280;65010;50.190;18.930;2023-03-12T08:41:32;97999.78;;;8.74;33.22
76216;BME280;65010;50.190;18.930;2023-03-12T08:44:41;97992.22;;;8.87;32.49
76216;BME280;65010;50.190;18.930;2023-03-12T08:47:47;97992.53;;;9.39;31.99
76216;BME280;65010;50.190;18.930;2023-03-12T08:50:54;97994.44;;;9.53;31.04
76216;BME280;65010;50.190;18.930;2023-03-12T08:54:01;97993.38;;;9.62;31.30
76216;BME280;65010;50.190;18.930;2023-03-12T08:57:07;97998.84;;;9.53;31.40
76216;BME280;65010;50.190;18.930;2023-03-12T09:00:17;97995.81;;;9.41;31.35
76216;BME280;65010;50.190;18.930;2023-03-12T09:03:24;97996.22;;;9.53;32.37
76216;BME280;65010;50.190;18.930;2023-03-12T09:06:31;97996.75;;;9.94;30.89
76216;BME280;65010;50.190;18.930;2023-03-12T09:09:39;97992.22;;;10.03;30.42
76216;BME280;65010;50.190;18.930;2023-03-12T09:12:44;97994.75;;;9.96;30.09
76216;BME280;65010;50.190;18.930;2023-03-12T09:15:57;97984.00;;;10.21;31.68
76216;BME280;65010;50.190;18.930;2023-03-12T09:19:04;97988.72;;;10.25;30.52
76216;BME280;65010;50.190;18.930;2023-03-12T09:22:11;97986.91;;;10.26;30.34
76216;BME280;65010;50.190;18.930;2023-03-12T09:25:17;97981.47;;;10.72;31.06
76216;BME280;65010;50.190;18.930;2023-03-12T09:28:25;97981.09;;;11.26;29.86
76216;BME280;65010;50.190;18.930;2023-03-12T09:31:34;97987.34;;;11.68;28.36
76216;BME280;65010;50.190;18.930;2023-03-12T09:34:40;97996.28;;;11.74;28.30
76216;BME280;65010;50.190;18.930;2023-03-12T09:37:47;97996.59;;;12.14;27.82
76216;BME280;65010;50.190;18.930;2023-03-12T09:40:54;98001.44;;;12.39;27.31
76216;BME280;65010;50.190;18.930;2023-03-12T09:44:06;97997.28;;;12.23;26.67
76216;BME280;65010;50.190;18.930;2023-03-12T09:47:27;98003.06;;;12.12;28.22
76216;BME280;65010;50.190;18.930;2023-03-12T09:50:42;98005.50;;;12.13;27.43
76216;BME280;65010;50.190;18.930;2023-03-12T09:53:56;98004.19;;;12.02;28.55
76216;BME280;65010;50.190;18.930;2023-03-12T09:57:11;98000.38;;;12.33;28.60
76216;BME280;65010;50.190;18.930;2023-03-12T10:00:28;98006.19;;;12.28;27.36
76216;BME280;65010;50.190;18.930;2023-03-12T10:03:57;98000.78;;;11.80;27.14
76216;BME280;65010;50.190;18.930;2023-03-12T10:07:30;98000.06;;;11.43;28.78
76216;BME280;65010;50.190;18.930;2023-03-12T10:10:51;97995.72;;;11.36;28.87
76216;BME280;65010;50.190;18.930;2023-03-12T10:14:16;97991.19;;;11.44;28.57
76216;BME280;65010;50.190;18.930;2023-03-12T10:17:48;97993.75;;;11.87;28.18
76216;BME280;65010;50.190;18.930;2023-03-12T10:21:21;97996.50;;;12.29;27.47
76216;BME280;65010;50.190;18.930;2023-03-12T10:24:48;97993.78;;;12.51;26.72
76216;BME280;65010;50.190;18.930;2023-03-12T10:28:14;97983.91;;;13.14;27.25
76216;BME280;65010;50.190;18.930;2023-03-12T10:31:27;97980.78;;;13.92;26.23
76216;BME280;65010;50.190;18.930;2023-03-12T10:34:41;97974.00;;;14.43;25.17
76216;BME280;65010;50.190;18.930;2023-03-12T10:37:55;97985.19;;;14.32;24.87
76216;BME280;65010;50.190;18.930;2023-03-12T10:41:12;97982.41;;;13.86;25.80
76216;BME280;65010;50.190;18.930;2023-03-12T10:44:26;97983.63;;;14.04;26.36
76216;BME280;65010;50.190;18.930;2023-03-12T10:47:36;97983.09;;;14.54;25.26
76216;BME280;65010;50.190;18.930;2023-03-12T10:50:42;97991.94;;;14.07;25.18
76216;BME280;65010;50.190;18.930;2023-03-12T10:54:21;97992.50;;;13.36;25.97
76216;BME280;65010;50.190;18.930;2023-03-12T10:57:39;97991.88;;;12.73;26.60
76216;BME280;65010;50.190;18.930;2023-03-12T11:00:55;98002.47;;;11.88;28.43
76216;BME280;65010;50.190;18.930;2023-03-12T11:04:16;98005.09;;;11.38;28.68
76216;BME280;65010;50.190;18.930;2023-03-12T11:07:31;97988.53;;;11.44;30.68
76216;BME280;65010;50.190;18.930;2023-03-12T11:10:45;97995.88;;;11.49;28.97
76216;BME280;65010;50.190;18.930;2023-03-12T11:14:06;97989.91;;;11.62;28.49
76216;BME280;65010;50.190;18.930;2023-03-12T11:17:23;97995.94;;;12.05;29.52
76216;BME280;65010;50.190;18.930;2023-03-12T11:20:32;97993.53;;;12.45;27.50
76216;BME280;65010;50.190;18.930;2023-03-12T11:23:40;97996.34;;;12.37;28.16
76216;BME280;65010;50.190;18.930;2023-03-12T11:26:58;97993.19;;;12.48;29.00
76216;BME280;65010;50.190;18.930;2023-03-12T11:30:15;97989.47;;;12.71;27.25
76216;BME280;65010;50.190;18.930;2023-03-12T11:33:27;97983.78;;;12.74;27.59
76216;BME280;65010;50.190;18.930;2023-03-12T11:36:44;97989.50;;;12.84;25.94
76216;BME280;65010;50.190;18.930;2023-03-12T11:40:18;97977.78;;;13.07;27.50
76216;BME280;65010;50.190;18.930;2023-03-12T11:43:53;97984.03;;;13.74;26.46
76216;BME280;65010;50.190;18.930;2023-03-12T11:47:24;97979.03;;;14.51;25.52
76216;BME280;65010;50.190;18.930;2023-03-12T11:50:56;97987.94;;;15.22;24.38
76216;BME280;65010;50.190;18.930;2023-03-12T11:54:29;97979.22;;;16.03;23.82
76216;BME280;65010;50.190;18.930;2023-03-12T11:58:03;97983.59;;;16.53;23.24
76216;BME280;65010;50.190;18.930;2023-03-12T12:01:35;97978.16;;;16.85;21.52
76216;BME280;65010;50.190;18.930;2023-03-12T12:05:20;97978.66;;;16.57;21.15
76216;BME280;65010;50.190;18.930;2023-03-12T12:08:46;97988.19;;;16.64;21.34
76216;BME280;65010;50.190;18.930;2023-03-12T12:12:23;97975.31;;;16.50;21.83
76216;BME280;65010;50.190;18.930;2023-03-12T12:15:55;97986.41;;;16.58;21.60
76216;BME280;65010;50.190;18.930;2023-03-12T12:19:23;97980.75;;;16.92;22.41
76216;BME280;65010;50.190;18.930;2023-03-12T12:22:52;97984.13;;;17.29;21.31
76216;BME280;65010;50.190;18.930;2023-03-12T12:26:11;97981.91;;;17.56;20.71
76216;BME280;65010;50.190;18.930;2023-03-12T12:29:37;97986.19;;;17.27;19.90
76216;BME280;65010;50.190;18.930;2023-03-12T12:33:13;97976.75;;;17.31;21.44
76216;BME280;65010;50.190;18.930;2023-03-12T12:36:34;97974.56;;;17.70;21.38
76216;BME280;65010;50.190;18.930;2023-03-12T12:39:48;97975.97;;;17.84;20.06
76216;BME280;65010;50.190;18.930;2023-03-12T12:43:14;97970.41;;;18.21;20.43
76216;BME280;65010;50.190;18.930;2023-03-12T12:46:33;97976.31;;;18.35;18.48
76216;BME280;65010;50.190;18.930;2023-03-12T12:49:45;97975.84;;;17.91;18.68
76216;BME280;65010;50.190;18.930;2023-03-12T12:53:04;97962.81;;;17.48;18.83
76216;BME280;65010;50.190;18.930;2023-03-12T12:56:24;97970.94;;;16.92;19.00
76216;BME280;65010;50.190;18.930;2023-03-12T12:59:41;97970.50;;;16.58;19.52
76216;BME280;65010;50.190;18.930;2023-03-12T13:02:55;97961.78;;;15.39;20.62
76216;BME280;65010;50.190;18.930;2023-03-12T13:06:06;97968.00;;;15.19;21.46
76216;BME280;65010;50.190;18.930;2023-03-12T13:09:21;97972.25;;;14.89;21.71
76216;BME280;65010;50.190;18.930;2023-03-12T13:12:48;97976.38;;;14.58;21.81
76216;BME280;65010;50.190;18.930;2023-03-12T13:16:16;97970.38;;;14.24;23.01
76216;BME280;65010;50.190;18.930;2023-03-12T13:19:38;97969.81;;;13.68;22.47
76216;BME280;65010;50.190;18.930;2023-03-12T13:23:08;97982.50;;;13.12;23.90
76216;BME280;65010;50.190;18.930;2023-03-12T13:26:50;97979.66;;;12.58;24.32
76216;BME280;65010;50.190;18.930;2023-03-12T13:33:56;97979.34;;;11.83;26.37
76216;BME280;65010;50.190;18.930;2023-03-12T13:37:18;97984.47;;;11.92;26.94
76216;BME280;65010;50.190;18.930;2023-03-12T13:40:51;97984.28;;;11.93;26.25
76216;BME280;65010;50.190;18.930;2023-03-12T13:44:36;97978.41;;;11.91;25.79
76216;BME280;65010;50.190;18.930;2023-03-12T13:47:43;97981.09;;;11.76;25.62
76216;BME280;65010;50.190;18.930;2023-03-12T13:50:53;97982.25;;;11.67;26.31
76216;BME280;65010;50.190;18.930;2023-03-12T13:54:03;97981.81;;;11.85;27.00
76216;BME280;65010;50.190;18.930;2023-03-12T13:57:19;97992.81;;;11.95;26.66
76216;BME280;65010;50.190;18.930;2023-03-12T14:00:39;97994.41;;;11.68;26.13
76216;BME280;65010;50.190;18.930;2023-03-12T14:03:57;97998.19;;;11.37;26.43
76216;BME280;65010;50.190;18.930;2023-03-12T14:11:31;97999.94;;;12.01;25.62
76216;BME280;65010;50.190;18.930;2023-03-12T14:15:09;98002.00;;;12.06;25.65
76216;BME280;65010;50.190;18.930;2023-03-12T14:18:30;97991.56;;;11.91;25.75
76216;BME280;65010;50.190;18.930;2023-03-12T14:21:44;98001.22;;;11.84;26.90
76216;BME280;65010;50.190;18.930;2023-03-12T14:24:57;97989.22;;;11.53;26.30
76216;BME280;65010;50.190;18.930;2023-03-12T14:28:13;97996.44;;;11.44;26.78
76216;BME280;65010;50.190;18.930;2023-03-12T14:31:25;98002.88;;;11.05;26.82
76216;BME280;65010;50.190;18.930;2023-03-12T14:34:41;98015.28;;;10.60;27.84
76216;BME280;65010;50.190;18.930;2023-03-12T14:37:57;98002.38;;;10.21;29.30
76216;BME280;65010;50.190;18.930;2023-03-12T14:41:13;98003.69;;;9.87;29.14
76216;BME280;65010;50.190;18.930;2023-03-12T14:44:27;98005.94;;;9.67;30.28
76216;BME280;65010;50.190;18.930;2023-03-12T14:47:38;98007.53;;;9.76;30.37
76216;BME280;65010;50.190;18.930;2023-03-12T14:50:48;97998.19;;;9.50;29.70
76216;BME280;65010;50.190;18.930;2023-03-12T14:54:01;98007.31;;;9.40;30.80
76216;BME280;65010;50.190;18.930;2023-03-12T14:57:12;98002.47;;;9.52;31.60
76216;BME280;65010;50.190;18.930;2023-03-12T15:00:27;98000.66;;;9.52;30.60
76216;BME280;65010;50.190;18.930;2023-03-12T15:03:41;98000.41;;;9.39;30.93
76216;BME280;65010;50.190;18.930;2023-03-12T15:06:54;98002.28;;;9.30;30.90
76216;BME280;65010;50.190;18.930;2023-03-12T15:10:16;97997.63;;;9.17;31.15
76216;BME280;65010;50.190;18.930;2023-03-12T15:13:27;97998.25;;;9.19;30.47
76216;BME280;65010;50.190;18.930;2023-03-12T15:16:35;97995.47;;;8.89;30.53
76216;BME280;65010;50.190;18.930;2023-03-12T15:19:41;98015.38;;;8.67;30.20
76216;BME280;65010;50.190;18.930;2023-03-12T15:22:52;98016.28;;;8.43;30.57
76216;BME280;65010;50.190;18.930;2023-03-12T15:26:10;98013.38;;;8.22;31.10
76216;BME280;65010;50.190;18.930;2023-03-12T15:29:22;98014.03;;;7.99;31.51
76216;BME280;65010;50.190;18.930;2023-03-12T15:32:31;98009.97;;;7.80;32.12
76216;BME280;65010;50.190;18.930;2023-03-12T15:35:41;97998.03;;;7.69;32.05
76216;BME280;65010;50.190;18.930;2023-03-12T15:39:22;97988.22;;;7.55;32.39
76216;BME280;65010;50.190;18.930;2023-03-12T15:42:38;97998.19;;;7.43;32.29
76216;BME280;65010;50.190;18.930;2023-03-12T15:45:56;97994.09;;;7.33;32.16
76216;BME280;65010;50.190;18.930;2023-03-12T15:49:10;98004.66;;;7.06;32.55
76216;BME280;65010;50.190;18.930;2023-03-12T15:52:30;98006.09;;;6.93;33.17
76216;BME280;65010;50.190;18.930;2023-03-12T15:55:40;98017.63;;;6.74;33.15
76216;BME280;65010;50.190;18.930;2023-03-12T15:58:49;98000.09;;;6.58;34.15
76216;BME280;65010;50.190;18.930;2023-03-12T16:02:10;98004.00;;;6.54;34.31
76216;BME280;65010;50.190;18.930;2023-03-12T16:05:17;98011.09;;;6.35;34.51
76216;BME280;65010;50.190;18.930;2023-03-12T16:08:30;98001.41;;;6.27;34.21
76216;BME280;65010;50.190;18.930;2023-03-12T16:11:43;98007.81;;;6.33;34.35
76216;BME280;65010;50.190;18.930;2023-03-12T16:14:50;97999.81;;;6.35;34.44
76216;BME280;65010;50.190;18.930;2023-03-12T16:17:58;97989.56;;;6.33;33.75
76216;BME280;65010;50.190;18.930;2023-03-12T16:21:05;98013.31;;;6.30;33.95
76216;BME280;65010;50.190;18.930;2023-03-12T16:24:12;98000.25;;;6.30;34.21
76216;BME280;65010;50.190;18.930;2023-03-12T16:27:21;97999.69;;;6.18;34.10
76216;BME280;65010;50.190;18.930;2023-03-12T16:30:35;98010.47;;;6.15;33.69
76216;BME280;65010;50.190;18.930;2023-03-12T16:33:43;98003.25;;;6.09;34.15
76216;BME280;65010;50.190;18.930;2023-03-12T16:36:49;98012.59;;;6.20;34.17
76216;BME280;65010;50.190;18.930;2023-03-12T16:39:56;98019.91;;;6.16;33.86
76216;BME280;65010;50.190;18.930;2023-03-12T16:43:14;98016.59;;;6.06;34.29
76216;BME280;65010;50.190;18.930;2023-03-12T16:46:26;98013.69;;;6.09;34.57
76216;BME280;65010;50.190;18.930;2023-03-12T16:49:35;98011.97;;;6.26;35.32
76216;BME280;65010;50.190;18.930;2023-03-12T16:52:42;98019.25;;;6.40;34.95
76216;BME280;65010;50.190;18.930;2023-03-12T16:55:54;98033.25;;;6.57;34.91
76216;BME280;65010;50.190;18.930;2023-03-12T16:59:11;98021.25;;;6.46;34.74